TAF Text Data
IDs:
Format:
Raw Decoded Include METAR

Data at: 1105 UTC 23 Jun 2021

KLEB 230855Z 2309/2406 16003KT P6SM SKC
  FM231300 30005KT P6SM FEW250
  FM240000 00000KT P6SM BKN250